sensor_id;sensor_type;location;lat;lon;timestamp;temperature;humidity
13322;DHT22;6730;46.248;6.930;2023-11-22T00:00:55;6.40;99.90
13322;DHT22;6730;46.248;6.930;2023-11-22T00:03:21;6.40;99.90
13322;DHT22;6730;46.248;6.930;2023-11-22T00:05:46;6.50;99.90
13322;DHT22;6730;46.248;6.930;2023-11-22T00:08:13;6.70;99.90
13322;DHT22;6730;46.248;6.930;2023-11-22T00:10:38;6.60;99.90
13322;DHT22;6730;46.248;6.930;2023-11-22T00:13:04;6.40;99.90
13322;DHT22;6730;46.248;6.930;2023-11-22T00:15:30;6.40;99.90
13322;DHT22;6730;46.248;6.930;2023-11-22T00:17:56;6.40;99.90
13322;DHT22;6730;46.248;6.930;2023-11-22T00:20:29;6.30;99.90
13322;DHT22;6730;46.248;6.930;2023-11-22T00:22:55;6.40;99.90
13322;DHT22;6730;46.248;6.930;2023-11-22T00:25:21;6.60;99.90
13322;DHT22;6730;46.248;6.930;2023-11-22T00:27:46;6.50;99.90
13322;DHT22;6730;46.248;6.930;2023-11-22T00:30:13;6.50;99.90
13322;DHT22;6730;46.248;6.930;2023-11-22T00:32:39;6.50;99.90
13322;DHT22;6730;46.248;6.930;2023-11-22T00:35:08;6.40;99.90
13322;DHT22;6730;46.248;6.930;2023-11-22T00:37:34;6.40;99.90
13322;DHT22;6730;46.248;6.930;2023-11-22T00:40:00;6.30;99.90
13322;DHT22;6730;46.248;6.930;2023-11-22T00:42:31;6.40;99.90
13322;DHT22;6730;46.248;6.930;2023-11-22T00:44:57;6.40;99.90
13322;DHT22;6730;46.248;6.930;2023-11-22T00:47:22;6.40;99.90
13322;DHT22;6730;46.248;6.930;2023-11-22T00:49:48;6.40;99.90
13322;DHT22;6730;46.248;6.930;2023-11-22T00:52:14;6.40;99.90
13322;DHT22;6730;46.248;6.930;2023-11-22T00:54:39;6.40;99.90
13322;DHT22;6730;46.248;6.930;2023-11-22T00:57:05;6.40;99.90
13322;DHT22;6730;46.248;6.930;2023-11-22T00:59:32;6.70;99.90
13322;DHT22;6730;46.248;6.930;2023-11-22T01:01:58;6.80;99.90
13322;DHT22;6730;46.248;6.930;2023-11-22T01:04:24;6.60;99.90
13322;DHT22;6730;46.248;6.930;2023-11-22T01:06:49;6.70;99.90
13322;DHT22;6730;46.248;6.930;2023-11-22T01:09:15;6.70;99.90
13322;DHT22;6730;46.248;6.930;2023-11-22T01:11:41;6.90;99.90
13322;DHT22;6730;46.248;6.930;2023-11-22T01:14:06;6.80;99.90
13322;DHT22;6730;46.248;6.930;2023-11-22T01:16:32;6.60;99.90
13322;DHT22;6730;46.248;6.930;2023-11-22T01:18:58;6.40;99.90
13322;DHT22;6730;46.248;6.930;2023-11-22T01:21:23;6.30;99.90
13322;DHT22;6730;46.248;6.930;2023-11-22T01:23:49;6.20;99.90
13322;DHT22;6730;46.248;6.930;2023-11-22T01:26:14;6.20;99.90
13322;DHT22;6730;46.248;6.930;2023-11-22T01:28:42;6.10;99.90
13322;DHT22;6730;46.248;6.930;2023-11-22T01:31:11;6.10;99.90
13322;DHT22;6730;46.248;6.930;2023-11-22T01:33:37;6.10;99.90
13322;DHT22;6730;46.248;6.930;2023-11-22T01:36:03;6.20;99.90
13322;DHT22;6730;46.248;6.930;2023-11-22T01:38:28;6.20;99.90
13322;DHT22;6730;46.248;6.930;2023-11-22T01:40:55;6.00;99.90
13322;DHT22;6730;46.248;6.930;2023-11-22T01:43:21;5.90;99.90
13322;DHT22;6730;46.248;6.930;2023-11-22T01:45:49;5.90;99.90
13322;DHT22;6730;46.248;6.930;2023-11-22T01:48:15;5.90;99.90
13322;DHT22;6730;46.248;6.930;2023-11-22T01:50:44;5.90;99.90
13322;DHT22;6730;46.248;6.930;2023-11-22T01:53:11;6.00;99.90
13322;DHT22;6730;46.248;6.930;2023-11-22T01:55:39;6.00;99.90
13322;DHT22;6730;46.248;6.930;2023-11-22T01:58:05;6.10;99.90
13322;DHT22;6730;46.248;6.930;2023-11-22T02:00:36;6.10;99.90
13322;DHT22;6730;46.248;6.930;2023-11-22T02:03:07;6.00;99.90
13322;DHT22;6730;46.248;6.930;2023-11-22T02:05:36;6.00;99.90
13322;DHT22;6730;46.248;6.930;2023-11-22T02:08:04;6.00;99.90
13322;DHT22;6730;46.248;6.930;2023-11-22T02:10:30;6.00;99.90
13322;DHT22;6730;46.248;6.930;2023-11-22T02:12:56;6.10;99.90
13322;DHT22;6730;46.248;6.930;2023-11-22T02:15:21;6.30;99.90
13322;DHT22;6730;46.248;6.930;2023-11-22T02:17:47;6.30;99.90
13322;DHT22;6730;46.248;6.930;2023-11-22T02:20:13;6.40;99.90
13322;DHT22;6730;46.248;6.930;2023-11-22T02:22:46;6.20;99.90
13322;DHT22;6730;46.248;6.930;2023-11-22T02:25:12;6.20;99.90
13322;DHT22;6730;46.248;6.930;2023-11-22T02:27:38;6.20;99.90
13322;DHT22;6730;46.248;6.930;2023-11-22T02:30:06;6.10;99.90
13322;DHT22;6730;46.248;6.930;2023-11-22T02:32:32;6.20;99.90
13322;DHT22;6730;46.248;6.930;2023-11-22T02:34:59;6.00;99.90
13322;DHT22;6730;46.248;6.930;2023-11-22T02:37:25;5.90;99.90
13322;DHT22;6730;46.248;6.930;2023-11-22T02:40:19;6.00;99.90
13322;DHT22;6730;46.248;6.930;2023-11-22T02:42:49;6.00;99.90
13322;DHT22;6730;46.248;6.930;2023-11-22T02:45:19;6.10;99.90
13322;DHT22;6730;46.248;6.930;2023-11-22T02:47:45;6.10;99.90
13322;DHT22;6730;46.248;6.930;2023-11-22T02:50:12;6.00;99.90
13322;DHT22;6730;46.248;6.930;2023-11-22T02:52:38;5.90;99.90
13322;DHT22;6730;46.248;6.930;2023-11-22T02:55:04;6.00;99.90
13322;DHT22;6730;46.248;6.930;2023-11-22T02:57:30;5.80;99.90
13322;DHT22;6730;46.248;6.930;2023-11-22T02:59:57;5.80;99.90
13322;DHT22;6730;46.248;6.930;2023-11-22T03:02:23;5.90;99.90
13322;DHT22;6730;46.248;6.930;2023-11-22T03:04:49;6.00;99.90
13322;DHT22;6730;46.248;6.930;2023-11-22T03:07:15;5.90;99.90
13322;DHT22;6730;46.248;6.930;2023-11-22T03:09:41;6.10;99.90
13322;DHT22;6730;46.248;6.930;2023-11-22T03:12:09;6.10;99.90
13322;DHT22;6730;46.248;6.930;2023-11-22T03:14:35;6.10;99.90
13322;DHT22;6730;46.248;6.930;2023-11-22T03:17:01;5.90;99.90
13322;DHT22;6730;46.248;6.930;2023-11-22T03:19:27;5.90;99.90
13322;DHT22;6730;46.248;6.930;2023-11-22T03:21:53;5.90;99.90
13322;DHT22;6730;46.248;6.930;2023-11-22T03:24:21;5.90;99.90
13322;DHT22;6730;46.248;6.930;2023-11-22T03:26:47;5.80;99.90
13322;DHT22;6730;46.248;6.930;2023-11-22T03:29:14;5.80;99.90
13322;DHT22;6730;46.248;6.930;2023-11-22T03:31:42;5.80;99.90
13322;DHT22;6730;46.248;6.930;2023-11-22T03:34:07;5.80;99.90
13322;DHT22;6730;46.248;6.930;2023-11-22T03:36:33;5.80;99.90
13322;DHT22;6730;46.248;6.930;2023-11-22T03:38:59;5.70;99.90
13322;DHT22;6730;46.248;6.930;2023-11-22T03:41:24;5.60;99.90
13322;DHT22;6730;46.248;6.930;2023-11-22T03:46:42;5.60;99.90
13322;DHT22;6730;46.248;6.930;2023-11-22T03:49:08;5.70;99.90
13322;DHT22;6730;46.248;6.930;2023-11-22T03:51:35;5.70;99.90
13322;DHT22;6730;46.248;6.930;2023-11-22T03:54:02;5.60;99.90
13322;DHT22;6730;46.248;6.930;2023-11-22T03:56:28;5.60;99.90
13322;DHT22;6730;46.248;6.930;2023-11-22T03:58:54;5.80;99.90
13322;DHT22;6730;46.248;6.930;2023-11-22T04:01:20;5.80;99.90
13322;DHT22;6730;46.248;6.930;2023-11-22T04:03:47;5.70;99.90
13322;DHT22;6730;46.248;6.930;2023-11-22T04:06:16;5.70;99.90
13322;DHT22;6730;46.248;6.930;2023-11-22T04:08:45;5.70;99.90
13322;DHT22;6730;46.248;6.930;2023-11-22T04:11:12;5.90;99.90
13322;DHT22;6730;46.248;6.930;2023-11-22T04:13:38;6.00;99.90
13322;DHT22;6730;46.248;6.930;2023-11-22T04:16:04;6.00;99.90
13322;DHT22;6730;46.248;6.930;2023-11-22T04:18:32;5.80;99.90
13322;DHT22;6730;46.248;6.930;2023-11-22T04:20:58;5.80;99.90
13322;DHT22;6730;46.248;6.930;2023-11-22T04:23:26;5.80;99.90
13322;DHT22;6730;46.248;6.930;2023-11-22T04:25:52;6.10;99.90
13322;DHT22;6730;46.248;6.930;2023-11-22T04:28:17;6.10;99.90
13322;DHT22;6730;46.248;6.930;2023-11-22T04:30:43;6.10;99.90
13322;DHT22;6730;46.248;6.930;2023-11-22T04:33:09;6.10;99.90
13322;DHT22;6730;46.248;6.930;2023-11-22T04:35:35;6.20;99.90
13322;DHT22;6730;46.248;6.930;2023-11-22T04:38:02;6.40;99.90
13322;DHT22;6730;46.248;6.930;2023-11-22T04:40:29;6.40;99.90
13322;DHT22;6730;46.248;6.930;2023-11-22T04:42:55;6.60;99.90
13322;DHT22;6730;46.248;6.930;2023-11-22T04:45:21;6.50;99.90
13322;DHT22;6730;46.248;6.930;2023-11-22T04:47:46;6.40;99.90
13322;DHT22;6730;46.248;6.930;2023-11-22T04:50:12;6.50;99.90
13322;DHT22;6730;46.248;6.930;2023-11-22T04:52:38;6.50;99.90
13322;DHT22;6730;46.248;6.930;2023-11-22T04:55:05;6.40;99.90
13322;DHT22;6730;46.248;6.930;2023-11-22T04:57:31;6.30;99.90
13322;DHT22;6730;46.248;6.930;2023-11-22T04:59:56;6.30;99.90
13322;DHT22;6730;46.248;6.930;2023-11-22T05:02:22;6.30;99.90
13322;DHT22;6730;46.248;6.930;2023-11-22T05:04:48;6.20;99.90
13322;DHT22;6730;46.248;6.930;2023-11-22T05:07:15;6.00;99.90
13322;DHT22;6730;46.248;6.930;2023-11-22T05:09:41;6.00;99.90
13322;DHT22;6730;46.248;6.930;2023-11-22T05:12:09;5.80;99.90
13322;DHT22;6730;46.248;6.930;2023-11-22T05:14:35;6.10;99.90
13322;DHT22;6730;46.248;6.930;2023-11-22T05:17:01;6.20;99.90
13322;DHT22;6730;46.248;6.930;2023-11-22T05:19:26;6.20;99.90
13322;DHT22;6730;46.248;6.930;2023-11-22T05:21:52;6.20;99.90
13322;DHT22;6730;46.248;6.930;2023-11-22T05:24:18;6.20;99.90
13322;DHT22;6730;46.248;6.930;2023-11-22T05:26:43;6.40;99.90
13322;DHT22;6730;46.248;6.930;2023-11-22T05:29:09;6.40;99.90
13322;DHT22;6730;46.248;6.930;2023-11-22T05:31:35;6.50;99.90
13322;DHT22;6730;46.248;6.930;2023-11-22T05:34:02;6.30;99.90
13322;DHT22;6730;46.248;6.930;2023-11-22T05:36:29;6.30;99.90
13322;DHT22;6730;46.248;6.930;2023-11-22T05:38:55;6.30;99.90
13322;DHT22;6730;46.248;6.930;2023-11-22T05:41:24;6.20;99.90
13322;DHT22;6730;46.248;6.930;2023-11-22T05:43:54;6.40;99.90
13322;DHT22;6730;46.248;6.930;2023-11-22T05:46:20;6.70;99.90
13322;DHT22;6730;46.248;6.930;2023-11-22T05:48:54;6.80;99.90
13322;DHT22;6730;46.248;6.930;2023-11-22T05:51:20;6.90;99.90
13322;DHT22;6730;46.248;6.930;2023-11-22T05:53:46;7.00;99.90
13322;DHT22;6730;46.248;6.930;2023-11-22T05:56:12;6.70;99.90
13322;DHT22;6730;46.248;6.930;2023-11-22T05:58:38;6.60;99.90
13322;DHT22;6730;46.248;6.930;2023-11-22T06:01:05;6.30;99.90
13322;DHT22;6730;46.248;6.930;2023-11-22T06:03:31;6.00;99.90
13322;DHT22;6730;46.248;6.930;2023-11-22T06:05:57;5.80;99.90
13322;DHT22;6730;46.248;6.930;2023-11-22T06:08:23;5.90;99.90
13322;DHT22;6730;46.248;6.930;2023-11-22T06:10:49;6.00;99.90
13322;DHT22;6730;46.248;6.930;2023-11-22T06:13:14;6.00;99.90
13322;DHT22;6730;46.248;6.930;2023-11-22T06:15:40;6.00;99.90
13322;DHT22;6730;46.248;6.930;2023-11-22T06:18:06;5.90;99.90
13322;DHT22;6730;46.248;6.930;2023-11-22T06:20:32;5.80;99.90
13322;DHT22;6730;46.248;6.930;2023-11-22T06:22:58;5.80;99.90
13322;DHT22;6730;46.248;6.930;2023-11-22T06:25:24;5.70;99.90
13322;DHT22;6730;46.248;6.930;2023-11-22T06:27:49;5.80;99.90
13322;DHT22;6730;46.248;6.930;2023-11-22T06:30:15;5.70;99.90
13322;DHT22;6730;46.248;6.930;2023-11-22T06:32:41;5.50;99.90
13322;DHT22;6730;46.248;6.930;2023-11-22T06:35:09;5.50;99.90
13322;DHT22;6730;46.248;6.930;2023-11-22T06:37:35;5.60;99.90
13322;DHT22;6730;46.248;6.930;2023-11-22T06:40:01;5.60;99.90
13322;DHT22;6730;46.248;6.930;2023-11-22T06:42:26;5.60;99.90
13322;DHT22;6730;46.248;6.930;2023-11-22T06:44:52;5.70;99.90
13322;DHT22;6730;46.248;6.930;2023-11-22T06:47:21;5.90;99.90
13322;DHT22;6730;46.248;6.930;2023-11-22T06:49:47;6.00;99.90
13322;DHT22;6730;46.248;6.930;2023-11-22T06:52:13;6.00;99.90
13322;DHT22;6730;46.248;6.930;2023-11-22T06:54:38;5.90;99.90
13322;DHT22;6730;46.248;6.930;2023-11-22T06:57:04;5.70;99.90
13322;DHT22;6730;46.248;6.930;2023-11-22T06:59:30;5.90;99.90
13322;DHT22;6730;46.248;6.930;2023-11-22T07:01:55;5.90;99.90
13322;DHT22;6730;46.248;6.930;2023-11-22T07:04:21;5.60;99.90
13322;DHT22;6730;46.248;6.930;2023-11-22T07:06:48;5.60;99.90
13322;DHT22;6730;46.248;6.930;2023-11-22T07:09:14;5.70;99.90
13322;DHT22;6730;46.248;6.930;2023-11-22T07:11:40;5.70;99.90
13322;DHT22;6730;46.248;6.930;2023-11-22T07:14:06;5.50;99.90
13322;DHT22;6730;46.248;6.930;2023-11-22T07:16:32;5.60;99.90
13322;DHT22;6730;46.248;6.930;2023-11-22T07:18:59;5.70;99.90
13322;DHT22;6730;46.248;6.930;2023-11-22T07:21:28;5.90;99.90
13322;DHT22;6730;46.248;6.930;2023-11-22T07:23:55;5.80;99.90
13322;DHT22;6730;46.248;6.930;2023-11-22T07:26:21;5.70;99.90
13322;DHT22;6730;46.248;6.930;2023-11-22T07:28:46;5.60;99.90
13322;DHT22;6730;46.248;6.930;2023-11-22T07:31:12;5.50;99.90
13322;DHT22;6730;46.248;6.930;2023-11-22T07:33:38;5.50;99.90
13322;DHT22;6730;46.248;6.930;2023-11-22T07:36:07;5.60;99.90
13322;DHT22;6730;46.248;6.930;2023-11-22T07:38:33;5.70;99.90
13322;DHT22;6730;46.248;6.930;2023-11-22T07:40:59;5.70;99.90
13322;DHT22;6730;46.248;6.930;2023-11-22T07:43:25;5.70;99.90
13322;DHT22;6730;46.248;6.930;2023-11-22T07:45:51;5.70;99.90
13322;DHT22;6730;46.248;6.930;2023-11-22T07:48:17;5.90;99.90
13322;DHT22;6730;46.248;6.930;2023-11-22T07:50:43;6.10;99.90
13322;DHT22;6730;46.248;6.930;2023-11-22T07:53:12;6.20;99.90
13322;DHT22;6730;46.248;6.930;2023-11-22T07:55:38;6.20;99.90
13322;DHT22;6730;46.248;6.930;2023-11-22T07:58:04;6.30;99.90
13322;DHT22;6730;46.248;6.930;2023-11-22T08:00:32;6.40;99.90
13322;DHT22;6730;46.248;6.930;2023-11-22T08:03:02;6.40;99.90
13322;DHT22;6730;46.248;6.930;2023-11-22T08:05:31;6.40;99.90
13322;DHT22;6730;46.248;6.930;2023-11-22T08:08:05;6.40;99.90
13322;DHT22;6730;46.248;6.930;2023-11-22T08:10:35;6.20;99.90
13322;DHT22;6730;46.248;6.930;2023-11-22T08:13:01;6.00;99.90
13322;DHT22;6730;46.248;6.930;2023-11-22T08:15:27;6.30;99.90
13322;DHT22;6730;46.248;6.930;2023-11-22T08:17:53;6.50;99.90
13322;DHT22;6730;46.248;6.930;2023-11-22T08:20:21;6.50;99.90
13322;DHT22;6730;46.248;6.930;2023-11-22T08:22:47;6.80;99.90
13322;DHT22;6730;46.248;6.930;2023-11-22T08:25:14;7.10;99.90
13322;DHT22;6730;46.248;6.930;2023-11-22T08:27:41;7.30;99.90
13322;DHT22;6730;46.248;6.930;2023-11-22T08:30:08;7.30;99.90
13322;DHT22;6730;46.248;6.930;2023-11-22T08:32:39;7.00;99.90
13322;DHT22;6730;46.248;6.930;2023-11-22T08:35:05;6.50;99.90
13322;DHT22;6730;46.248;6.930;2023-11-22T08:37:34;6.20;99.90
13322;DHT22;6730;46.248;6.930;2023-11-22T08:40:01;6.10;99.90
13322;DHT22;6730;46.248;6.930;2023-11-22T08:42:27;6.20;99.90
13322;DHT22;6730;46.248;6.930;2023-11-22T08:44:52;6.50;99.90
13322;DHT22;6730;46.248;6.930;2023-11-22T08:47:18;6.80;99.90
13322;DHT22;6730;46.248;6.930;2023-11-22T08:49:43;7.10;99.90
13322;DHT22;6730;46.248;6.930;2023-11-22T08:52:09;7.50;99.90
13322;DHT22;6730;46.248;6.930;2023-11-22T08:54:35;7.70;99.90
13322;DHT22;6730;46.248;6.930;2023-11-22T08:57:00;7.70;99.90
13322;DHT22;6730;46.248;6.930;2023-11-22T08:59:26;7.60;99.90
13322;DHT22;6730;46.248;6.930;2023-11-22T09:01:52;7.30;99.90
13322;DHT22;6730;46.248;6.930;2023-11-22T09:04:18;6.80;99.90
13322;DHT22;6730;46.248;6.930;2023-11-22T09:06:44;7.10;99.90
13322;DHT22;6730;46.248;6.930;2023-11-22T09:09:10;7.40;99.90
13322;DHT22;6730;46.248;6.930;2023-11-22T09:11:41;7.30;99.90
13322;DHT22;6730;46.248;6.930;2023-11-22T09:14:06;7.50;99.90
13322;DHT22;6730;46.248;6.930;2023-11-22T09:16:38;7.70;99.90
13322;DHT22;6730;46.248;6.930;2023-11-22T09:19:05;7.70;99.90
13322;DHT22;6730;46.248;6.930;2023-11-22T09:21:32;7.60;99.90
13322;DHT22;6730;46.248;6.930;2023-11-22T09:23:58;7.80;99.90
13322;DHT22;6730;46.248;6.930;2023-11-22T09:26:24;8.00;99.90
13322;DHT22;6730;46.248;6.930;2023-11-22T09:28:50;8.10;99.90
13322;DHT22;6730;46.248;6.930;2023-11-22T09:31:16;7.90;99.90
13322;DHT22;6730;46.248;6.930;2023-11-22T09:33:46;8.30;99.90
13322;DHT22;6730;46.248;6.930;2023-11-22T09:36:12;8.40;99.90
13322;DHT22;6730;46.248;6.930;2023-11-22T09:38:38;9.00;99.90
13322;DHT22;6730;46.248;6.930;2023-11-22T09:41:04;9.40;99.90
13322;DHT22;6730;46.248;6.930;2023-11-22T09:43:30;9.20;99.90
13322;DHT22;6730;46.248;6.930;2023-11-22T09:45:56;9.40;99.90
13322;DHT22;6730;46.248;6.930;2023-11-22T09:48:23;9.00;99.90
13322;DHT22;6730;46.248;6.930;2023-11-22T09:51:15;9.20;99.90
13322;DHT22;6730;46.248;6.930;2023-11-22T09:53:53;10.20;99.90
13322;DHT22;6730;46.248;6.930;2023-11-22T09:56:22;9.90;99.90
13322;DHT22;6730;46.248;6.930;2023-11-22T09:58:52;10.60;99.90
13322;DHT22;6730;46.248;6.930;2023-11-22T10:01:24;11.20;99.90
13322;DHT22;6730;46.248;6.930;2023-11-22T10:03:50;11.50;99.90
13322;DHT22;6730;46.248;6.930;2023-11-22T10:06:16;11.90;99.90
13322;DHT22;6730;46.248;6.930;2023-11-22T10:08:43;12.70;99.90
13322;DHT22;6730;46.248;6.930;2023-11-22T10:11:09;13.00;99.90
13322;DHT22;6730;46.248;6.930;2023-11-22T10:13:34;13.60;99.90
13322;DHT22;6730;46.248;6.930;2023-11-22T10:16:11;13.70;99.90
13322;DHT22;6730;46.248;6.930;2023-11-22T10:18:47;12.30;99.90
13322;DHT22;6730;46.248;6.930;2023-11-22T10:23:47;13.00;99.90
13322;DHT22;6730;46.248;6.930;2023-11-22T10:26:17;12.60;99.90
13322;DHT22;6730;46.248;6.930;2023-11-22T10:28:43;12.50;99.90
13322;DHT22;6730;46.248;6.930;2023-11-22T10:31:09;12.40;99.90
13322;DHT22;6730;46.248;6.930;2023-11-22T10:33:44;13.20;99.90
13322;DHT22;6730;46.248;6.930;2023-11-22T10:36:10;13.80;99.90
13322;DHT22;6730;46.248;6.930;2023-11-22T10:38:38;13.60;99.90
13322;DHT22;6730;46.248;6.930;2023-11-22T10:41:07;13.20;99.90
13322;DHT22;6730;46.248;6.930;2023-11-22T10:43:34;12.40;99.90
13322;DHT22;6730;46.248;6.930;2023-11-22T10:46:02;12.20;99.90
13322;DHT22;6730;46.248;6.930;2023-11-22T10:48:31;12.30;99.90
13322;DHT22;6730;46.248;6.930;2023-11-22T10:51:00;12.30;99.90
13322;DHT22;6730;46.248;6.930;2023-11-22T10:53:34;12.50;99.90
13322;DHT22;6730;46.248;6.930;2023-11-22T10:58:32;13.40;99.90
13322;DHT22;6730;46.248;6.930;2023-11-22T11:01:00;13.70;99.90
13322;DHT22;6730;46.248;6.930;2023-11-22T11:03:28;13.00;99.90
13322;DHT22;6730;46.248;6.930;2023-11-22T11:06:04;13.50;99.90
13322;DHT22;6730;46.248;6.930;2023-11-22T11:08:33;13.80;99.90
13322;DHT22;6730;46.248;6.930;2023-11-22T11:11:01;13.50;99.90
13322;DHT22;6730;46.248;6.930;2023-11-22T11:13:30;13.40;99.90
13322;DHT22;6730;46.248;6.930;2023-11-22T11:15:56;13.10;99.90
13322;DHT22;6730;46.248;6.930;2023-11-22T11:18:22;12.50;99.90
13322;DHT22;6730;46.248;6.930;2023-11-22T11:20:49;12.40;99.90
13322;DHT22;6730;46.248;6.930;2023-11-22T11:23:36;12.20;99.90
13322;DHT22;6730;46.248;6.930;2023-11-22T11:26:14;11.30;99.90
13322;DHT22;6730;46.248;6.930;2023-11-22T11:28:48;11.30;99.90
13322;DHT22;6730;46.248;6.930;2023-11-22T11:31:15;11.10;99.90
13322;DHT22;6730;46.248;6.930;2023-11-22T11:38:47;11.00;99.90
13322;DHT22;6730;46.248;6.930;2023-11-22T11:41:15;11.40;99.90
13322;DHT22;6730;46.248;6.930;2023-11-22T11:43:44;11.80;99.90
13322;DHT22;6730;46.248;6.930;2023-11-22T11:46:13;11.70;99.90
13322;DHT22;6730;46.248;6.930;2023-11-22T11:48:50;10.90;99.90
13322;DHT22;6730;46.248;6.930;2023-11-22T11:51:17;10.80;99.90
13322;DHT22;6730;46.248;6.930;2023-11-22T11:53:45;10.80;99.90
13322;DHT22;6730;46.248;6.930;2023-11-22T11:56:11;11.40;99.90
13322;DHT22;6730;46.248;6.930;2023-11-22T11:58:38;11.60;99.90
13322;DHT22;6730;46.248;6.930;2023-11-22T12:01:07;11.60;99.90
13322;DHT22;6730;46.248;6.930;2023-11-22T12:03:33;11.80;99.90
13322;DHT22;6730;46.248;6.930;2023-11-22T12:05:59;11.90;99.90
13322;DHT22;6730;46.248;6.930;2023-11-22T12:08:24;11.30;99.90
13322;DHT22;6730;46.248;6.930;2023-11-22T12:10:50;11.00;99.90
13322;DHT22;6730;46.248;6.930;2023-11-22T12:13:22;10.80;99.90
13322;DHT22;6730;46.248;6.930;2023-11-22T12:15:48;10.60;99.90
13322;DHT22;6730;46.248;6.930;2023-11-22T12:18:13;10.40;99.90
13322;DHT22;6730;46.248;6.930;2023-11-22T12:20:39;11.00;99.90
13322;DHT22;6730;46.248;6.930;2023-11-22T12:23:05;10.90;99.90
13322;DHT22;6730;46.248;6.930;2023-11-22T12:25:32;10.30;99.90
13322;DHT22;6730;46.248;6.930;2023-11-22T12:27:58;10.00;99.90
13322;DHT22;6730;46.248;6.930;2023-11-22T12:30:35;10.00;99.90
13322;DHT22;6730;46.248;6.930;2023-11-22T12:33:04;10.20;99.90
13322;DHT22;6730;46.248;6.930;2023-11-22T12:35:31;10.30;99.90
13322;DHT22;6730;46.248;6.930;2023-11-22T12:38:02;10.10;99.90
13322;DHT22;6730;46.248;6.930;2023-11-22T12:40:29;10.10;99.90
13322;DHT22;6730;46.248;6.930;2023-11-22T12:42:57;9.80;99.90
13322;DHT22;6730;46.248;6.930;2023-11-22T12:45:23;9.70;99.90
13322;DHT22;6730;46.248;6.930;2023-11-22T12:47:56;9.50;99.90
13322;DHT22;6730;46.248;6.930;2023-11-22T12:50:38;9.40;99.90
13322;DHT22;6730;46.248;6.930;2023-11-22T12:53:11;9.30;99.90
13322;DHT22;6730;46.248;6.930;2023-11-22T12:55:47;9.40;99.90
13322;DHT22;6730;46.248;6.930;2023-11-22T12:58:18;9.30;99.90
13322;DHT22;6730;46.248;6.930;2023-11-22T13:00:45;9.20;99.90
13322;DHT22;6730;46.248;6.930;2023-11-22T13:03:12;9.40;99.90
13322;DHT22;6730;46.248;6.930;2023-11-22T13:05:39;9.40;99.90
13322;DHT22;6730;46.248;6.930;2023-11-22T13:08:05;9.30;99.90
13322;DHT22;6730;46.248;6.930;2023-11-22T13:10:31;9.20;99.90
13322;DHT22;6730;46.248;6.930;2023-11-22T13:12:57;9.10;99.90
13322;DHT22;6730;46.248;6.930;2023-11-22T13:15:23;9.30;99.90
13322;DHT22;6730;46.248;6.930;2023-11-22T13:17:52;9.60;99.90
13322;DHT22;6730;46.248;6.930;2023-11-22T13:20:24;9.70;99.90
13322;DHT22;6730;46.248;6.930;2023-11-22T13:22:51;9.60;99.90
13322;DHT22;6730;46.248;6.930;2023-11-22T13:25:17;9.60;99.90
13322;DHT22;6730;46.248;6.930;2023-11-22T13:27:45;9.80;99.90
13322;DHT22;6730;46.248;6.930;2023-11-22T13:30:12;9.90;99.90
13322;DHT22;6730;46.248;6.930;2023-11-22T13:32:38;9.80;99.90
13322;DHT22;6730;46.248;6.930;2023-11-22T13:35:07;9.60;99.90
13322;DHT22;6730;46.248;6.930;2023-11-22T13:37:39;9.50;99.90
13322;DHT22;6730;46.248;6.930;2023-11-22T13:40:09;9.40;99.90
13322;DHT22;6730;46.248;6.930;2023-11-22T13:42:43;9.50;99.90
13322;DHT22;6730;46.248;6.930;2023-11-22T13:45:10;9.90;99.90
13322;DHT22;6730;46.248;6.930;2023-11-22T13:47:36;10.20;99.90
13322;DHT22;6730;46.248;6.930;2023-11-22T13:50:02;9.50;99.90
13322;DHT22;6730;46.248;6.930;2023-11-22T13:52:29;8.80;99.90
13322;DHT22;6730;46.248;6.930;2023-11-22T13:54:54;8.40;99.90
13322;DHT22;6730;46.248;6.930;2023-11-22T13:57:22;8.20;99.90
13322;DHT22;6730;46.248;6.930;2023-11-22T13:59:48;8.20;99.90
13322;DHT22;6730;46.248;6.930;2023-11-22T14:02:14;8.10;99.90
13322;DHT22;6730;46.248;6.930;2023-11-22T14:04:41;8.00;99.90
13322;DHT22;6730;46.248;6.930;2023-11-22T14:07:07;7.90;99.90
13322;DHT22;6730;46.248;6.930;2023-11-22T14:09:33;7.90;99.90
13322;DHT22;6730;46.248;6.930;2023-11-22T14:12:02;8.00;99.90
13322;DHT22;6730;46.248;6.930;2023-11-22T14:14:28;7.90;99.90
13322;DHT22;6730;46.248;6.930;2023-11-22T14:16:53;7.80;99.90
13322;DHT22;6730;46.248;6.930;2023-11-22T14:19:19;7.80;99.90
13322;DHT22;6730;46.248;6.930;2023-11-22T14:21:45;7.80;99.90
13322;DHT22;6730;46.248;6.930;2023-11-22T14:24:10;7.70;99.90
13322;DHT22;6730;46.248;6.930;2023-11-22T14:26:37;7.70;99.90
13322;DHT22;6730;46.248;6.930;2023-11-22T14:29:03;7.90;99.90
13322;DHT22;6730;46.248;6.930;2023-11-22T14:31:31;8.40;99.90
13322;DHT22;6730;46.248;6.930;2023-11-22T14:33:56;8.70;99.90
13322;DHT22;6730;46.248;6.930;2023-11-22T14:36:26;9.10;99.90
13322;DHT22;6730;46.248;6.930;2023-11-22T14:38:52;9.40;99.90
13322;DHT22;6730;46.248;6.930;2023-11-22T14:41:22;9.60;99.90
13322;DHT22;6730;46.248;6.930;2023-11-22T14:43:48;10.00;99.90
13322;DHT22;6730;46.248;6.930;2023-11-22T14:46:14;10.10;99.90
13322;DHT22;6730;46.248;6.930;2023-11-22T14:48:40;9.30;99.90
13322;DHT22;6730;46.248;6.930;2023-11-22T14:51:05;8.30;99.90
13322;DHT22;6730;46.248;6.930;2023-11-22T14:53:34;8.10;99.90
13322;DHT22;6730;46.248;6.930;2023-11-22T14:56:00;8.40;99.90
13322;DHT22;6730;46.248;6.930;2023-11-22T14:58:26;8.80;99.90
13322;DHT22;6730;46.248;6.930;2023-11-22T15:00:52;9.10;99.90
13322;DHT22;6730;46.248;6.930;2023-11-22T15:03:18;9.10;99.90
13322;DHT22;6730;46.248;6.930;2023-11-22T15:05:44;9.30;99.90
13322;DHT22;6730;46.248;6.930;2023-11-22T15:08:09;9.20;99.90
13322;DHT22;6730;46.248;6.930;2023-11-22T15:10:35;9.30;99.90
13322;DHT22;6730;46.248;6.930;2023-11-22T15:13:01;9.30;99.90
13322;DHT22;6730;46.248;6.930;2023-11-22T15:15:27;9.20;99.90
13322;DHT22;6730;46.248;6.930;2023-11-22T15:17:53;9.20;99.90
13322;DHT22;6730;46.248;6.930;2023-11-22T15:20:19;9.00;99.90
13322;DHT22;6730;46.248;6.930;2023-11-22T15:22:44;8.70;99.90
13322;DHT22;6730;46.248;6.930;2023-11-22T15:25:11;8.90;99.90
13322;DHT22;6730;46.248;6.930;2023-11-22T15:27:37;8.30;99.90
13322;DHT22;6730;46.248;6.930;2023-11-22T15:30:02;8.00;99.90
13322;DHT22;6730;46.248;6.930;2023-11-22T15:32:29;8.00;99.90
13322;DHT22;6730;46.248;6.930;2023-11-22T15:34:54;8.40;99.90
13322;DHT22;6730;46.248;6.930;2023-11-22T15:37:20;8.40;99.90
13322;DHT22;6730;46.248;6.930;2023-11-22T15:39:46;8.40;99.90
13322;DHT22;6730;46.248;6.930;2023-11-22T15:42:11;8.50;99.90
13322;DHT22;6730;46.248;6.930;2023-11-22T15:44:37;8.70;99.90
13322;DHT22;6730;46.248;6.930;2023-11-22T15:47:03;8.90;99.90
13322;DHT22;6730;46.248;6.930;2023-11-22T15:49:36;8.90;99.90
13322;DHT22;6730;46.248;6.930;2023-11-22T15:52:02;9.00;99.90
13322;DHT22;6730;46.248;6.930;2023-11-22T15:54:28;9.20;99.90
13322;DHT22;6730;46.248;6.930;2023-11-22T15:56:53;9.20;99.90
13322;DHT22;6730;46.248;6.930;2023-11-22T15:59:19;9.20;99.90
13322;DHT22;6730;46.248;6.930;2023-11-22T16:01:44;9.20;99.90
13322;DHT22;6730;46.248;6.930;2023-11-22T16:04:11;9.10;99.90
13322;DHT22;6730;46.248;6.930;2023-11-22T16:06:37;9.10;99.90
13322;DHT22;6730;46.248;6.930;2023-11-22T16:09:04;9.10;99.90
13322;DHT22;6730;46.248;6.930;2023-11-22T16:11:35;8.90;99.90